Time,TemperatureF,DewpointF,PressureIn,WindDirection,WindDirectionDegrees,WindSpeedMPH,WindSpeedGustMPH,Humidity,HourlyPrecipIn,Conditions,Clouds,dailyrainin,SolarRadiationWatts/m^2,SoftwareType,DateUTC
2013-10-06 00:12:00,32.0,24.0,-100.00,NNW,335,7.0,23.0,71,0.00,,,0.33,0.000000,,2013-10-06 06:12:00,
2013-10-06 00:22:00,32.0,24.0,-100.00,NNW,335,7.0,23.0,71,0.00,,,0.33,0.000000,,2013-10-06 06:22:00,
2013-10-06 00:32:00,32.0,24.0,-100.00,NNW,335,7.0,23.0,71,0.00,,,0.33,0.000000,,2013-10-06 06:32:00,
2013-10-06 01:11:00,32.0,24.0,-100.00,NNW,332,8.0,19.0,73,0.00,,,0.33,0.000000,,2013-10-06 07:11:00,
2013-10-06 01:22:00,32.0,24.0,-100.00,NNW,332,8.0,19.0,73,0.00,,,0.33,0.000000,,2013-10-06 07:22:00,
2013-10-06 01:32:00,32.0,24.0,-100.00,NNW,332,8.0,19.0,73,0.00,,,0.33,0.000000,,2013-10-06 07:32:00,
2013-10-06 02:11:00,34.0,25.0,-100.00,NNW,334,6.0,17.0,70,0.00,,,0.33,0.000000,,2013-10-06 08:11:00,
2013-10-06 02:22:00,34.0,25.0,-100.00,NNW,334,6.0,17.0,70,0.00,,,0.33,0.000000,,2013-10-06 08:22:00,
2013-10-06 02:32:00,34.0,25.0,-100.00,NNW,334,6.0,17.0,70,0.00,,,0.33,0.000000,,2013-10-06 08:32:00,
2013-10-06 03:11:00,35.0,26.0,-100.00,NNW,330,7.0,17.0,68,0.00,,,0.33,0.000000,,2013-10-06 09:11:00,
2013-10-06 03:22:00,35.0,26.0,-100.00,NNW,330,7.0,17.0,68,0.00,,,0.33,0.000000,,2013-10-06 09:22:00,
2013-10-06 03:33:00,35.0,26.0,-100.00,NNW,330,7.0,17.0,68,0.00,,,0.33,0.000000,,2013-10-06 09:33:00,
2013-10-06 04:13:00,36.0,28.0,-100.00,NNW,335,7.0,18.0,72,0.00,,,0.33,0.000000,,2013-10-06 10:13:00,
2013-10-06 04:23:00,36.0,28.0,-100.00,NNW,335,7.0,18.0,72,0.00,,,0.33,0.000000,,2013-10-06 10:23:00,
2013-10-06 04:32:00,36.0,28.0,-100.00,NNW,335,7.0,18.0,72,0.00,,,0.33,0.000000,,2013-10-06 10:32:00,
2013-10-06 05:12:00,36.0,28.0,-100.00,NNW,330,7.0,19.0,73,0.00,,,0.33,0.000000,,2013-10-06 11:12:00,
2013-10-06 05:21:00,36.0,28.0,-100.00,NNW,330,7.0,19.0,73,0.00,,,0.33,0.000000,,2013-10-06 11:21:00,
2013-10-06 05:33:00,36.0,28.0,-100.00,NNW,330,7.0,19.0,73,0.00,,,0.33,0.000000,,2013-10-06 11:33:00,
2013-10-06 06:12:00,37.0,29.0,-100.00,NW,325,6.0,16.0,74,0.00,,,0.33,0.000000,,2013-10-06 12:12:00,
2013-10-06 06:22:00,37.0,29.0,-100.00,NW,325,6.0,16.0,74,0.00,,,0.33,0.000000,,2013-10-06 12:22:00,
2013-10-06 06:32:00,37.0,29.0,-100.00,NW,325,6.0,16.0,74,0.00,,,0.33,0.000000,,2013-10-06 12:32:00,
2013-10-06 07:11:00,37.0,27.0,-100.00,NW,323,6.0,16.0,68,0.00,,,0.33,0.000000,,2013-10-06 13:11:00,
2013-10-06 07:21:00,37.0,27.0,-100.00,NW,323,6.0,16.0,68,0.00,,,0.33,0.000000,,2013-10-06 13:21:00,
2013-10-06 07:32:00,37.0,27.0,-100.00,NW,323,6.0,16.0,68,0.00,,,0.33,0.000000,,2013-10-06 13:32:00,
2013-10-06 08:11:00,39.0,29.0,-100.00,NW,326,7.0,17.0,67,0.00,,,0.33,7.000000,,2013-10-06 14:11:00,
2013-10-06 08:22:00,39.0,29.0,-100.00,NW,326,7.0,17.0,67,0.00,,,0.33,7.000000,,2013-10-06 14:22:00,
2013-10-06 08:32:00,39.0,29.0,-100.00,NW,326,7.0,17.0,67,0.00,,,0.33,7.000000,,2013-10-06 14:32:00,
2013-10-06 09:11:00,42.0,30.0,-100.00,NNW,328,6.0,16.0,62,0.00,,,0.33,131.000000,,2013-10-06 15:11:00,
2013-10-06 09:22:00,42.0,30.0,-100.00,NNW,328,6.0,16.0,62,0.00,,,0.33,131.000000,,2013-10-06 15:22:00,
2013-10-06 09:34:00,42.0,30.0,-100.00,NNW,328,6.0,16.0,62,0.00,,,0.33,131.000000,,2013-10-06 15:34:00,
2013-10-06 10:12:00,46.0,32.0,-100.00,NW,325,7.0,21.0,58,0.00,,,-99.99,304.000000,,2013-10-06 16:12:00,
2013-10-06 10:23:00,46.0,32.0,-100.00,NW,325,7.0,21.0,58,0.00,,,-99.99,304.000000,,2013-10-06 16:23:00,
2013-10-06 10:33:00,46.0,32.0,-100.00,NW,325,7.0,21.0,58,0.00,,,-99.99,304.000000,,2013-10-06 16:33:00,
2013-10-06 11:12:00,49.0,33.0,-100.00,NNW,328,8.0,18.0,54,0.00,,,0.33,542.000000,,2013-10-06 17:12:00,
2013-10-06 11:22:00,49.0,33.0,-100.00,NNW,328,8.0,18.0,54,0.00,,,0.33,542.000000,,2013-10-06 17:22:00,
2013-10-06 11:33:00,49.0,33.0,-100.00,NNW,328,8.0,18.0,54,0.00,,,0.33,542.000000,,2013-10-06 17:33:00,
2013-10-06 12:12:00,51.0,33.0,-100.00,NNW,328,8.0,19.0,50,0.01,,,0.34,658.000000,,2013-10-06 18:12:00,
2013-10-06 12:22:00,51.0,33.0,-100.00,NNW,328,8.0,19.0,50,0.01,,,0.34,658.000000,,2013-10-06 18:22:00,
2013-10-06 12:32:00,51.0,33.0,-100.00,NNW,328,8.0,19.0,50,0.01,,,0.34,658.000000,,2013-10-06 18:32:00,
2013-10-06 13:11:00,53.0,33.0,-100.00,NW,311,6.0,17.0,47,0.00,,,0.27,722.000000,,2013-10-06 19:11:00,
2013-10-06 13:22:00,53.0,33.0,-100.00,NW,311,6.0,17.0,47,0.00,,,0.27,722.000000,,2013-10-06 19:22:00,
2013-10-06 13:32:00,53.0,33.0,-100.00,NW,311,6.0,17.0,47,0.00,,,0.27,722.000000,,2013-10-06 19:32:00,
2013-10-06 14:11:00,54.0,32.0,-100.00,NW,318,5.0,12.0,43,0.00,,,0.15,714.000000,,2013-10-06 20:11:00,
2013-10-06 14:22:00,54.0,32.0,-100.00,NW,318,5.0,12.0,43,0.00,,,0.15,714.000000,,2013-10-06 20:22:00,
2013-10-06 14:32:00,54.0,32.0,-100.00,NW,318,5.0,12.0,43,0.00,,,0.15,714.000000,,2013-10-06 20:32:00,
2013-10-06 15:12:00,54.0,31.0,-100.00,NW,310,6.0,15.0,41,0.00,,,0.03,667.000000,,2013-10-06 21:12:00,
2013-10-06 15:22:00,54.0,31.0,-100.00,NW,310,6.0,15.0,41,0.00,,,0.03,667.000000,,2013-10-06 21:22:00,
2013-10-06 15:34:00,54.0,31.0,-100.00,NW,310,6.0,15.0,41,0.00,,,0.03,667.000000,,2013-10-06 21:34:00,
2013-10-06 16:13:00,52.0,28.0,-100.00,NW,310,6.0,15.0,40,0.00,,,0.01,552.000000,,2013-10-06 22:13:00,
2013-10-06 16:24:00,52.0,28.0,-100.00,NW,310,6.0,15.0,40,0.00,,,0.01,552.000000,,2013-10-06 22:24:00,
2013-10-06 16:33:00,52.0,28.0,-100.00,NW,310,6.0,15.0,40,0.00,,,0.01,552.000000,,2013-10-06 22:33:00,
2013-10-06 17:12:00,52.0,29.0,-100.00,NW,307,4.0,12.0,41,0.00,,,0.01,265.000000,,2013-10-06 23:12:00,
2013-10-06 17:22:00,52.0,29.0,-100.00,NW,307,4.0,12.0,41,0.00,,,0.01,265.000000,,2013-10-06 23:22:00,
2013-10-06 17:34:00,52.0,29.0,-100.00,NW,307,4.0,12.0,41,0.00,,,0.01,265.000000,,2013-10-06 23:34:00,
2013-10-06 18:12:00,50.0,29.0,-100.00,NW,309,3.0,13.0,45,0.00,,,0.01,42.000000,,2013-10-07 00:12:00,
2013-10-06 18:22:00,50.0,29.0,-100.00,NW,309,3.0,13.0,45,0.00,,,0.01,42.000000,,2013-10-07 00:22:00,
2013-10-06 18:32:00,50.0,29.0,-100.00,NW,309,3.0,13.0,45,0.00,,,0.01,42.000000,,2013-10-07 00:32:00,
2013-10-06 19:11:00,44.0,30.0,-100.00,NNW,335,0.0,4.0,57,0.00,,,0.01,29.000000,,2013-10-07 01:11:00,
2013-10-06 19:22:00,44.0,30.0,-100.00,NNW,335,0.0,4.0,57,0.00,,,0.01,29.000000,,2013-10-07 01:22:00,
2013-10-06 19:32:00,44.0,30.0,-100.00,NNW,335,0.0,4.0,57,0.00,,,0.01,29.000000,,2013-10-07 01:32:00,
2013-10-06 20:12:00,39.0,30.0,-100.00,North,353,1.0,4.0,71,0.00,,,0.01,1.000000,,2013-10-07 02:12:00,
2013-10-06 20:22:00,39.0,30.0,-100.00,North,353,1.0,4.0,71,0.00,,,0.01,1.000000,,2013-10-07 02:22:00,
2013-10-06 20:32:00,39.0,30.0,-100.00,North,353,1.0,4.0,71,0.00,,,0.01,1.000000,,2013-10-07 02:32:00,
2013-10-06 21:12:00,39.0,31.0,-100.00,NE,52,0.0,5.0,73,0.00,,,0.01,0.000000,,2013-10-07 03:12:00,
2013-10-06 21:22:00,39.0,31.0,-100.00,NE,52,0.0,5.0,73,0.00,,,0.01,0.000000,,2013-10-07 03:22:00,
2013-10-06 21:34:00,39.0,31.0,-100.00,NE,52,0.0,5.0,73,0.00,,,0.01,0.000000,,2013-10-07 03:34:00,
2013-10-06 22:13:00,35.0,29.0,-100.00,NNE,32,0.0,3.0,80,0.00,,,0.01,0.000000,,2013-10-07 04:13:00,
2013-10-06 22:24:00,35.0,29.0,-100.00,NNE,32,0.0,3.0,80,0.00,,,0.01,0.000000,,2013-10-07 04:24:00,
2013-10-06 22:34:00,35.0,29.0,-100.00,NNE,32,0.0,3.0,80,0.00,,,0.01,0.000000,,2013-10-07 04:34:00,
2013-10-06 23:13:00,32.0,28.0,-100.00,SE,133,0.0,4.0,84,0.00,,,0.01,0.000000,,2013-10-07 05:13:00,
2013-10-06 23:22:00,32.0,28.0,-100.00,SE,133,0.0,4.0,84,0.00,,,0.01,0.000000,,2013-10-07 05:22:00,
2013-10-06 23:34:00,32.0,28.0,-100.00,SE,133,0.0,4.0,84,0.00,,,0.01,0.000000,,2013-10-07 05:34:00,